Time;durP1;ratioP1;P1;durP2;ratioP2;P2;SDS_P1;SDS_P2;PMS_P1;PMS_P2;Temp;Humidity;BMP_temperature;BMP_pressure;BME280_temperature;BME280_humidity;BME280_pressure;Samples;Min_cycle;Max_cycle;Signal;HPM_P1;HPM_P2
2022/05/29 00:02:03;;;;;;;5.57;2.47;;;;;;;-149.78;100.00;50219.16;5100381;27;20043;-69
2022/05/29 00:04:29;;;;;;;7.05;2.72;;;;;;;-149.78;100.00;50185.91;5105135;28;20023;-69
2022/05/29 00:06:57;;;;;;;5.53;2.40;;;;;;;-149.78;100.00;50185.91;5112003;27;20084;-68
2022/05/29 00:09:31;;;;;;;5.05;2.17;;;;;;;-149.78;100.00;50189.81;5134097;27;20039;-69
2022/05/29 00:12:02;;;;;;;6.07;2.60;;;;;;;-149.78;100.00;50232.84;5098273;27;20366;-69
2022/05/29 00:14:28;;;;;;;5.97;2.47;;;;;;;-149.78;100.00;50234.81;5133987;27;20035;-69
2022/05/29 00:16:54;;;;;;;8.00;2.58;;;;;;;-149.78;100.00;50205.47;5110744;27;20118;-69
2022/05/29 00:19:20;;;;;;;5.47;2.47;;;;;;;-149.78;100.00;50219.16;5112264;27;20038;-69
2022/05/29 00:21:46;;;;;;;6.20;2.30;;;;;;;-149.78;100.00;50217.19;5124261;27;20421;-69
2022/05/29 00:24:14;;;;;;;9.10;2.50;;;;;;;-149.78;100.00;50166.34;5126061;27;20039;-68
2022/05/29 00:26:39;;;;;;;10.73;2.42;;;;;;;-149.78;100.00;50189.81;5111908;28;20032;-69
2022/05/29 00:29:05;;;;;;;11.50;2.97;;;;;;;-149.78;100.00;50207.44;5123863;27;20031;-69
2022/05/29 00:31:31;;;;;;;9.32;2.97;;;;;;;-149.78;100.00;50205.47;5131441;27;20031;-69
2022/05/29 00:33:57;;;;;;;11.70;2.65;;;;;;;-149.78;100.00;50172.22;5133286;27;20087;-69
2022/05/29 00:36:23;;;;;;;6.35;2.70;;;;;;;-149.78;100.00;50226.97;5111496;27;20035;-68
2022/05/29 00:38:50;;;;;;;7.80;2.88;;;;;;;-149.78;100.00;50201.56;5107253;28;20036;-68
2022/05/29 00:41:27;;;;;;;8.75;2.55;;;;;;;-149.78;100.00;50225.03;5116091;27;20031;-69
2022/05/29 00:44:23;;;;;;;7.93;2.35;;;;;;;-149.78;100.00;50185.91;5133359;27;20398;-69
2022/05/29 00:46:57;;;;;;;7.38;2.33;;;;;;;-149.78;100.00;50238.72;5124257;27;20402;-69
2022/05/29 00:49:35;;;;;;;6.15;2.70;;;;;;;-149.78;100.00;50209.38;5109773;28;20486;-68
2022/05/29 00:52:05;;;;;;;4.07;2.30;;;;;;;-149.78;100.00;50209.38;5131362;27;20027;-68
2022/05/29 00:54:37;;;;;;;6.82;2.50;;;;;;;-149.78;100.00;50205.47;5116123;27;20483;-68
2022/05/29 00:57:04;;;;;;;8.55;2.70;;;;;;;-149.78;100.00;50219.16;5132550;27;20474;-69
2022/05/29 00:59:32;;;;;;;10.40;2.63;;;;;;;-149.78;100.00;50217.19;5120606;27;20039;-69
2022/05/29 01:02:01;;;;;;;15.15;3.58;;;;;;;-149.78;100.00;50213.28;5093669;28;20042;-69
2022/05/29 01:04:27;;;;;;;6.40;2.80;;;;;;;-149.78;100.00;50213.28;5096300;28;20469;-68
2022/05/29 01:06:54;;;;;;;6.68;2.80;;;;;;;-149.78;100.00;50209.38;5124577;28;20142;-68
2022/05/29 01:09:20;;;;;;;5.95;2.90;;;;;;;-149.78;100.00;50213.28;5105342;28;20034;-69
2022/05/29 01:11:58;;;;;;;4.45;2.70;;;;;;;-149.78;100.00;50183.97;5095028;28;20035;-68
2022/05/29 01:14:42;;;;;;;8.68;2.92;;;;;;;-149.78;100.00;50215.25;5119736;28;20042;-69
2022/05/29 01:17:15;;;;;;;5.22;2.58;;;;;;;-149.78;100.00;50244.59;5118403;28;20462;-68
2022/05/29 01:20:10;;;;;;;6.80;3.00;;;;;;;-149.78;100.00;50197.66;5104643;28;20051;-69
2022/05/29 01:22:51;;;;;;;8.65;2.83;;;;;;;-149.78;100.00;50209.38;5056183;28;20050;-69
2022/05/29 01:25:41;;;;;;;7.20;2.33;;;;;;;-149.78;100.00;50223.06;5097547;28;20035;-69
2022/05/29 01:28:29;;;;;;;10.32;2.40;;;;;;;-149.78;100.00;50217.19;5118667;28;20049;-68
2022/05/29 01:31:18;;;;;;;4.47;2.42;;;;;;;-149.78;100.00;50234.81;5124142;28;20035;-68
2022/05/29 01:34:06;;;;;;;8.30;3.05;;;;;;;-149.78;100.00;50197.66;5118452;28;20034;-69
2022/05/29 01:36:31;;;;;;;6.90;2.38;;;;;;;-149.78;100.00;50240.66;5130198;28;20088;-68
2022/05/29 01:39:09;;;;;;;8.25;3.25;;;;;;;-149.78;100.00;50219.16;5105339;28;20031;-68
2022/05/29 01:41:53;;;;;;;5.82;2.33;;;;;;;-149.78;100.00;50228.94;5105153;28;20043;-68
2022/05/29 01:44:29;;;;;;;5.72;2.72;;;;;;;-149.78;100.00;50201.56;5094660;28;20066;-69
2022/05/29 01:47:05;;;;;;;5.72;2.28;;;;;;;-149.78;100.00;50219.16;5120398;28;20031;-68
2022/05/29 01:49:38;;;;;;;5.95;2.55;;;;;;;-149.78;100.00;50221.13;5114768;28;20031;-68
2022/05/29 01:52:12;;;;;;;5.55;2.60;;;;;;;-149.78;100.00;50207.44;5131938;28;20030;-69
2022/05/29 01:54:59;;;;;;;9.57;2.85;;;;;;;-149.78;100.00;50260.22;5132794;27;20058;-68
2022/05/29 01:57:33;;;;;;;7.28;2.58;;;;;;;-149.78;100.00;50240.66;5125886;27;20031;-68
2022/05/29 02:00:11;;;;;;;6.78;2.72;;;;;;;-149.78;100.00;50250.44;5130447;27;20482;-68
2022/05/29 02:03:05;;;;;;;6.47;2.88;;;;;;;-149.78;100.00;50238.72;5098642;28;20084;-69
2022/05/29 02:05:41;;;;;;;5.97;2.72;;;;;;;-149.78;100.00;50242.63;5131265;27;20130;-68
2022/05/29 02:08:24;;;;;;;10.10;2.90;;;;;;;-149.78;100.00;50238.72;5115774;27;20027;-68
2022/05/29 02:11:05;;;;;;;7.10;2.97;;;;;;;-149.78;100.00;50207.44;5115096;27;20028;-68
2022/05/29 02:13:37;;;;;;;6.63;2.80;;;;;;;-149.78;100.00;50252.41;5115861;27;20055;-68
2022/05/29 02:16:02;;;;;;;6.10;2.92;;;;;;;-149.78;100.00;50258.28;5132664;27;20075;-69
2022/05/29 02:18:46;;;;;;;8.93;3.67;;;;;;;-149.78;100.00;50236.75;5116040;27;20039;-69
2022/05/29 02:21:19;;;;;;;6.30;2.75;;;;;;;-149.78;100.00;50228.94;5127035;27;20062;-69
2022/05/29 02:23:51;;;;;;;7.18;2.70;;;;;;;-149.78;100.00;50252.41;5129090;27;20462;-68
2022/05/29 02:26:23;;;;;;;13.35;3.10;;;;;;;-149.78;100.00;50226.97;5134633;27;20110;-68
2022/05/29 02:28:54;;;;;;;10.02;3.65;;;;;;;-149.78;100.00;50221.13;5103113;28;20040;-69
2022/05/29 02:31:41;;;;;;;6.85;3.20;;;;;;;-149.78;100.00;50232.84;5128432;27;20077;-68
2022/05/29 02:34:12;;;;;;;5.88;2.67;;;;;;;-149.78;100.00;50240.66;5125618;27;20027;-69
2022/05/29 02:36:51;;;;;;;6.25;3.28;;;;;;;-149.78;100.00;50232.84;5120296;27;20019;-68
2022/05/29 02:39:42;;;;;;;4.63;2.53;;;;;;;-149.78;100.00;50225.03;5129304;27;20027;-69
2022/05/29 02:42:41;;;;;;;9.70;2.65;;;;;;;-149.78;100.00;50254.34;5125743;27;20030;-69
2022/05/29 02:45:09;;;;;;;5.80;2.60;;;;;;;-149.78;100.00;50248.50;5119236;27;20032;-69
2022/05/29 02:48:07;;;;;;;6.43;2.72;;;;;;;-149.78;100.00;50250.44;5113659;27;20027;-68
2022/05/29 02:50:42;;;;;;;5.20;2.88;;;;;;;-149.78;100.00;50228.94;5112387;27;20043;-68
2022/05/29 02:53:11;;;;;;;12.00;2.78;;;;;;;-149.78;100.00;50244.59;5119859;27;20020;-68
2022/05/29 02:55:38;;;;;;;8.15;3.40;;;;;;;-149.78;100.00;50252.41;5123226;27;20042;-68
2022/05/29 02:58:08;;;;;;;7.35;2.92;;;;;;;-149.78;100.00;50236.75;5103154;27;20126;-68
2022/05/29 03:00:48;;;;;;;7.60;3.13;;;;;;;-149.78;100.00;50242.63;5129937;27;20091;-69
2022/05/29 03:03:28;;;;;;;5.57;2.60;;;;;;;-149.78;100.00;50236.75;5121104;27;20428;-69
2022/05/29 03:06:12;;;;;;;5.65;2.83;;;;;;;-149.78;100.00;50252.41;5113412;28;20044;-68
2022/05/29 03:08:41;;;;;;;6.80;2.65;;;;;;;-149.78;100.00;50228.94;5115564;27;20146;-69
2022/05/29 03:11:36;;;;;;;5.38;2.75;;;;;;;-149.78;100.00;50266.09;5095775;28;20115;-69
2022/05/29 03:14:15;;;;;;;8.65;2.80;;;;;;;-149.78;100.00;50225.03;5126593;27;20114;-68
2022/05/29 03:16:50;;;;;;;7.65;2.95;;;;;;;-149.78;100.00;50217.19;5129367;27;20479;-69
2022/05/29 03:19:21;;;;;;;7.88;3.10;;;;;;;-149.78;100.00;50268.03;5129693;27;20027;-68
2022/05/29 03:22:05;;;;;;;7.60;2.92;;;;;;;-149.78;100.00;50260.22;5123196;27;20028;-69
2022/05/29 03:25:02;;;;;;;7.32;2.65;;;;;;;-149.78;100.00;50189.81;5114813;27;20490;-68
2022/05/29 03:27:51;;;;;;;6.63;2.70;;;;;;;-149.78;100.00;50221.13;5097330;27;20027;-68
2022/05/29 03:30:29;;;;;;;5.05;2.58;;;;;;;-149.78;100.00;50258.28;5108840;27;20423;-68
2022/05/29 03:32:58;;;;;;;6.80;3.05;;;;;;;-149.78;100.00;50228.94;5128657;27;20375;-68
2022/05/29 03:35:23;;;;;;;8.57;2.80;;;;;;;-149.78;100.00;50225.03;5130953;27;20062;-68
2022/05/29 03:37:50;;;;;;;9.32;2.88;;;;;;;-149.78;100.00;50252.41;5103081;27;20056;-68
2022/05/29 03:40:16;;;;;;;5.82;2.50;;;;;;;-149.78;100.00;50240.66;5133881;27;20169;-68
2022/05/29 03:42:42;;;;;;;5.78;2.60;;;;;;;-149.78;100.00;50238.72;5120614;27;20027;-68
2022/05/29 03:45:08;;;;;;;4.30;2.60;;;;;;;-149.78;100.00;50252.41;5115931;27;20026;-68
2022/05/29 03:47:36;;;;;;;9.30;3.00;;;;;;;-149.78;100.00;50207.44;5131468;27;20031;-68
2022/05/29 03:50:04;;;;;;;6.97;2.42;;;;;;;-149.78;100.00;50236.75;5115176;27;20030;-69
2022/05/29 03:52:31;;;;;;;3.72;2.38;;;;;;;-149.78;100.00;50225.03;5114281;27;20076;-68
2022/05/29 03:54:58;;;;;;;5.97;2.55;;;;;;;-149.78;100.00;50244.59;5132427;27;20039;-68
2022/05/29 03:57:24;;;;;;;7.57;2.50;;;;;;;-149.78;100.00;50217.19;5112945;27;20035;-69
2022/05/29 03:59:49;;;;;;;7.55;2.63;;;;;;;-149.78;100.00;50228.94;5115396;27;20035;-68
2022/05/29 04:02:16;;;;;;;11.35;2.38;;;;;;;-149.78;100.00;50228.94;5097603;27;20039;-69
2022/05/29 04:04:43;;;;;;;7.75;2.72;;;;;;;-149.78;100.00;50244.59;5112488;27;20032;-69
2022/05/29 04:07:09;;;;;;;8.15;2.50;;;;;;;-149.78;100.00;50236.75;5118289;27;20146;-69
2022/05/29 04:12:24;;;;;;;13.48;2.67;;;;;;;-149.78;100.00;50189.81;5085580;27;20050;-69
2022/05/29 04:14:49;;;;;;;8.35;2.38;;;;;;;-149.78;100.00;50236.75;5111791;27;20032;-69
2022/05/29 04:17:20;;;;;;;9.35;2.40;;;;;;;-149.78;100.00;50225.03;5111448;28;20224;-69
2022/05/29 04:19:46;;;;;;;9.80;2.20;;;;;;;-149.78;100.00;50264.13;5131865;27;20072;-69
2022/05/29 04:22:17;;;;;;;8.63;2.00;;;;;;;-149.78;100.00;50256.31;5102688;28;20028;-69
2022/05/29 04:24:43;;;;;;;5.97;2.33;;;;;;;-149.78;100.00;50240.66;5127308;27;20039;-70
2022/05/29 04:27:14;;;;;;;5.30;2.35;;;;;;;-149.78;100.00;50209.38;5115510;27;20154;-70
2022/05/29 04:29:41;;;;;;;5.43;2.20;;;;;;;-149.78;100.00;50217.19;5127719;27;20027;-69
2022/05/29 04:34:56;;;;;;;6.53;2.30;;;;;;;-149.78;100.00;50217.19;5116102;27;20424;-68
2022/05/29 04:37:22;;;;;;;8.98;2.50;;;;;;;-149.78;100.00;50221.13;5112960;27;20026;-69
2022/05/29 04:39:50;;;;;;;6.88;2.33;;;;;;;-149.78;100.00;50225.03;5124246;27;20104;-68
2022/05/29 04:42:16;;;;;;;9.43;2.28;;;;;;;-149.78;100.00;50205.47;5097139;28;20039;-69
2022/05/29 04:44:41;;;;;;;5.20;2.28;;;;;;;-149.78;100.00;50240.66;5106085;28;20027;-68
2022/05/29 04:47:09;;;;;;;5.13;2.10;;;;;;;-149.78;100.00;50240.66;5122555;27;20037;-68
2022/05/29 04:49:38;;;;;;;5.22;1.90;;;;;;;-149.78;100.00;50260.22;5125301;27;20023;-68
2022/05/29 04:52:08;;;;;;;5.13;2.30;;;;;;;-149.78;100.00;50248.50;5111943;28;20035;-68
2022/05/29 04:54:39;;;;;;;7.57;3.50;;;;;;;-149.78;100.00;50244.59;5122601;27;20351;-69
2022/05/29 04:57:06;;;;;;;5.10;1.83;;;;;;;-149.78;100.00;50244.59;5127850;27;20038;-68
2022/05/29 04:59:32;;;;;;;3.17;2.00;;;;;;;-149.78;100.00;50225.03;5096470;28;20019;-68
2022/05/29 05:01:59;;;;;;;14.13;2.42;;;;;;;-149.78;100.00;50215.25;5093022;28;20039;-68
2022/05/29 05:04:25;;;;;;;9.50;2.20;;;;;;;-149.78;100.00;50230.88;5114660;28;20027;-68
2022/05/29 05:06:55;;;;;;;5.55;1.98;;;;;;;-149.78;100.00;50232.84;5119590;28;20043;-69
2022/05/29 05:09:22;;;;;;;6.15;1.95;;;;;;;-149.78;100.00;50232.84;5095920;28;20157;-69
2022/05/29 05:11:51;;;;;;;8.73;2.10;;;;;;;-149.78;100.00;50221.13;5125495;28;20023;-69
2022/05/29 05:14:17;;;;;;;7.18;1.83;;;;;;;-149.78;100.00;50209.38;5115606;28;20094;-68
2022/05/29 05:16:43;;;;;;;5.85;1.98;;;;;;;-149.78;100.00;50182.00;5105520;28;20547;-69
2022/05/29 05:19:09;;;;;;;11.70;1.85;;;;;;;-149.78;100.00;50236.75;5076472;28;20399;-68
2022/05/29 05:21:34;;;;;;;8.77;2.58;;;;;;;-149.78;100.00;50205.47;5076486;28;20126;-68
2022/05/29 05:24:04;;;;;;;7.88;2.28;;;;;;;-149.78;100.00;50221.13;5125253;28;20042;-68
2022/05/29 05:26:30;;;;;;;6.00;2.28;;;;;;;-149.78;100.00;50226.97;5124792;28;20028;-68
2022/05/29 05:28:55;;;;;;;6.15;1.85;;;;;;;-149.78;100.00;50236.75;5134952;27;20035;-68
2022/05/29 05:31:21;;;;;;;8.63;2.42;;;;;;;-149.78;100.00;50205.47;5111698;27;20562;-68
2022/05/29 05:33:47;;;;;;;9.50;2.10;;;;;;;-149.78;100.00;50226.97;5134371;27;20502;-68
2022/05/29 05:36:14;;;;;;;2.92;1.80;;;;;;;-149.78;100.00;50211.34;5081415;27;20061;-69
2022/05/29 05:38:39;;;;;;;4.75;2.08;;;;;;;-149.78;100.00;50223.06;5129346;27;20103;-68
2022/05/29 05:41:08;;;;;;;5.07;2.08;;;;;;;-149.78;100.00;50244.59;5116366;28;20498;-68
2022/05/29 05:43:33;;;;;;;8.20;2.30;;;;;;;-149.78;100.00;50226.97;5112510;27;20445;-68
2022/05/29 05:45:59;;;;;;;7.18;2.35;;;;;;;-149.78;100.00;50174.19;5100568;28;20435;-69
2022/05/29 05:48:29;;;;;;;6.90;2.15;;;;;;;-149.78;100.00;50189.81;5115103;27;20127;-69
2022/05/29 05:50:57;;;;;;;5.57;2.15;;;;;;;-149.78;100.00;50197.66;5111372;27;20609;-69
2022/05/29 05:53:23;;;;;;;8.15;2.00;;;;;;;-149.78;100.00;50228.94;5118120;27;20029;-68
2022/05/29 05:55:50;;;;;;;4.25;2.10;;;;;;;-149.78;100.00;50226.97;5127530;27;20058;-68
2022/05/29 05:58:16;;;;;;;5.72;2.35;;;;;;;-149.78;100.00;50185.91;5116793;28;20114;-68
2022/05/29 06:00:46;;;;;;;6.32;2.05;;;;;;;-149.78;100.00;50221.13;5095771;28;20115;-68
2022/05/29 06:03:12;;;;;;;9.23;2.25;;;;;;;-149.78;100.00;50256.31;5081504;28;20498;-69
2022/05/29 06:05:37;;;;;;;5.72;2.25;;;;;;;-149.78;100.00;50185.91;5127437;27;20103;-68
2022/05/29 06:08:03;;;;;;;6.50;2.20;;;;;;;-149.78;100.00;50225.03;5114780;27;20032;-69
2022/05/29 06:10:29;;;;;;;6.57;2.50;;;;;;;-149.78;100.00;50221.13;5105494;27;20041;-68
2022/05/29 06:12:56;;;;;;;8.45;3.30;;;;;;;-149.78;100.00;50183.97;5107164;27;20035;-68
2022/05/29 06:15:21;;;;;;;5.82;2.38;;;;;;;-149.78;100.00;50244.59;5108012;27;20462;-68
2022/05/29 06:17:47;;;;;;;8.68;2.80;;;;;;;-149.78;100.00;50197.66;5119716;27;20066;-68
2022/05/29 06:20:13;;;;;;;5.28;2.15;;;;;;;-149.78;100.00;50223.06;5126114;27;20111;-69
2022/05/29 06:22:41;;;;;;;7.30;2.30;;;;;;;-149.78;100.00;50201.56;5097559;28;20054;-69
2022/05/29 06:25:07;;;;;;;5.50;2.15;;;;;;;-149.78;100.00;50225.03;5115373;27;20054;-68
2022/05/29 06:27:41;;;;;;;6.55;1.98;;;;;;;-149.78;100.00;50248.50;5133605;27;20039;-68
2022/05/29 06:30:10;;;;;;;17.15;2.63;;;;;;;-149.78;100.00;50187.88;5100219;27;20450;-68
2022/05/29 06:32:38;;;;;;;9.68;2.33;;;;;;;-149.78;100.00;50213.28;5125423;27;20035;-69
2022/05/29 06:35:06;;;;;;;3.20;1.85;;;;;;;-149.78;100.00;50193.72;5126799;27;20509;-69
2022/05/29 06:37:32;;;;;;;10.57;2.25;;;;;;;-149.78;100.00;50164.41;5105918;27;20370;-68
2022/05/29 06:39:58;;;;;;;6.30;2.05;;;;;;;-149.78;100.00;50185.91;5126537;27;20031;-69
2022/05/29 06:42:24;;;;;;;7.60;2.00;;;;;;;-149.78;100.00;50225.03;5099623;28;20118;-69
2022/05/29 06:44:50;;;;;;;8.77;2.60;;;;;;;-149.78;100.00;50178.09;5112406;27;20023;-68
2022/05/29 06:47:15;;;;;;;5.05;2.45;;;;;;;-149.78;100.00;50189.81;5103954;28;20510;-68
2022/05/29 06:49:41;;;;;;;4.40;1.70;;;;;;;-149.78;100.00;50211.34;5116015;27;20028;-68
2022/05/29 06:52:11;;;;;;;5.78;2.30;;;;;;;-149.78;100.00;50221.13;5106884;28;20482;-69
2022/05/29 06:54:37;;;;;;;4.40;2.00;;;;;;;-149.78;100.00;50215.25;5132652;27;20050;-68
2022/05/29 06:57:06;;;;;;;5.05;1.60;;;;;;;-149.78;100.00;50178.09;5114301;27;20023;-69
2022/05/29 07:06:58;;;;;;;5.20;1.88;;;;;;;-149.78;100.00;50158.53;5126229;27;20035;-68
2022/05/29 07:07:51;;;;;;;2.42;0.80;;;;;;;-149.78;100.00;50138.97;5119786;27;20035;-69
2022/05/29 07:10:17;;;;;;;3.67;1.10;;;;;;;-149.78;100.00;50117.47;5133419;27;20023;-68
2022/05/29 07:12:44;;;;;;;1.52;1.00;;;;;;;-149.78;100.00;50129.19;5135639;27;20067;-68
2022/05/29 07:15:10;;;;;;;1.83;0.88;;;;;;;-149.78;100.00;50182.00;5115429;27;20054;-69
2022/05/29 07:17:36;;;;;;;1.83;1.08;;;;;;;-149.78;100.00;50170.25;5075899;28;20023;-68
2022/05/29 07:20:03;;;;;;;3.45;1.20;;;;;;;-149.78;100.00;50127.25;5096711;28;20031;-68
2022/05/29 07:22:30;;;;;;;2.15;1.10;;;;;;;-149.78;100.00;50135.06;5110416;28;20027;-69
2022/05/29 07:24:56;;;;;;;1.80;0.82;;;;;;;-149.78;100.00;50146.81;5123361;27;20087;-69
2022/05/29 07:27:22;;;;;;;2.63;0.85;;;;;;;-149.78;100.00;50119.41;5093584;27;20152;-68
2022/05/29 07:29:48;;;;;;;1.85;0.73;;;;;;;-149.78;100.00;50095.94;5113443;28;20157;-69
2022/05/29 07:32:14;;;;;;;2.63;0.88;;;;;;;-149.78;100.00;50160.50;5113244;28;20110;-69
2022/05/29 07:34:43;;;;;;;3.92;1.23;;;;;;;-149.78;100.00;50129.19;5106252;28;20032;-69
2022/05/29 07:37:12;;;;;;;3.45;1.08;;;;;;;-149.78;100.00;50135.06;5103682;27;20031;-69
2022/05/29 07:39:45;;;;;;;2.70;1.08;;;;;;;-149.78;100.00;50109.66;5108451;28;20455;-70
2022/05/29 07:44:56;;;;;;;2.00;0.60;;;;;;;-149.78;85.16;50056.84;5099763;27;20039;-69
2022/05/29 07:47:27;;;;;;;3.42;0.70;;;;;;;-149.78;79.72;50049.03;5093167;28;20080;-69
2022/05/29 07:49:55;;;;;;;2.30;0.60;;;;;;;-149.78;68.41;50006.00;5127912;27;20229;-69
2022/05/29 07:52:21;;;;;;;1.95;0.80;;;;;;;-149.78;67.41;50095.94;5099271;28;20054;-69
2022/05/29 07:54:46;;;;;;;1.42;0.80;;;;;;;-149.78;81.25;50148.75;5108956;27;20442;-69
2022/05/29 07:57:12;;;;;;;2.88;0.80;;;;;;;-149.78;89.70;50117.47;5130187;27;20042;-69
2022/05/29 07:59:38;;;;;;;2.50;0.88;;;;;;;-149.78;97.48;50131.16;5100007;28;20042;-69
2022/05/29 08:02:03;;;;;;;0.98;0.70;;;;;;;-149.78;100.00;50135.06;5090911;27;20466;-69
2022/05/29 08:04:30;;;;;;;2.20;0.85;;;;;;;-149.78;100.00;50146.81;5103119;27;20027;-69
2022/05/29 08:06:55;;;;;;;4.28;0.88;;;;;;;-149.78;100.00;50187.88;5121649;27;20052;-70
2022/05/29 08:09:21;;;;;;;1.55;0.88;;;;;;;-149.78;97.80;50162.44;5123548;27;20027;-69
2022/05/29 08:11:47;;;;;;;0.80;0.80;;;;;;;-149.78;80.76;50119.41;5123080;27;20023;-69
2022/05/29 08:14:13;;;;;;;1.02;0.70;;;;;;;-149.78;65.00;50025.56;5112103;27;20360;-69
2022/05/29 08:16:39;;;;;;;1.48;0.95;;;;;;;-149.78;60.08;50058.78;5108256;28;20119;-70
2022/05/29 08:19:07;;;;;;;1.38;0.40;;;;;;;-149.78;55.69;50047.06;5095439;28;20144;-70
2022/05/29 08:21:33;;;;;;;1.08;0.68;;;;;;;-149.78;55.65;50049.03;5109796;27;20023;-70
2022/05/29 08:32:11;;;;;;;3.40;0.73;;;;;;;-149.78;57.70;50082.25;5118802;27;20068;-69
2022/05/29 08:34:37;;;;;;;2.55;0.70;;;;;;;-149.78;60.95;50052.94;5131714;27;20215;-71
2022/05/29 08:37:03;;;;;;;0.60;0.60;;;;;;;-149.78;65.33;50103.78;5096465;27;20054;-70
2022/05/29 08:39:29;;;;;;;4.25;0.75;;;;;;;-149.78;72.65;50138.97;5113568;27;20027;-69
2022/05/29 08:41:57;;;;;;;1.73;1.10;;;;;;;-149.78;78.93;50099.88;5115194;28;20034;-69
2022/05/29 08:44:37;;;;;;;2.45;0.88;;;;;;;-149.78;71.34;50142.88;5120764;27;20034;-72
2022/05/29 08:47:04;;;;;;;1.48;1.00;;;;;;;-149.78;70.05;50060.75;5098795;27;20506;-71
2022/05/29 08:49:34;;;;;;;4.22;0.90;;;;;;;-149.78;64.52;50049.03;5131562;27;20030;-73
2022/05/29 08:52:08;;;;;;;1.00;0.90;;;;;;;-149.78;57.17;50045.09;5126989;27;20031;-71
2022/05/29 08:54:46;;;;;;;2.13;1.02;;;;;;;-149.78;52.46;49994.25;5124861;27;20027;-68
2022/05/29 08:57:14;;;;;;;1.60;0.70;;;;;;;-149.78;51.25;49978.63;5118771;27;20148;-68
2022/05/29 08:59:56;;;;;;;1.98;0.70;;;;;;;-149.78;49.89;49970.78;5120564;28;20035;-70
2022/05/29 09:02:43;;;;;;;1.88;0.85;;;;;;;-149.78;50.75;49994.25;5094410;28;20106;-71
2022/05/29 09:05:37;;;;;;;2.25;0.73;;;;;;;-149.78;49.95;50033.38;5095590;27;20038;-71
2022/05/29 09:08:10;;;;;;;2.75;0.82;;;;;;;-149.78;50.90;49982.53;5087883;28;20134;-70
2022/05/29 09:10:49;;;;;;;1.20;0.70;;;;;;;-149.78;49.28;50021.63;5125454;27;20027;-71
2022/05/29 09:13:27;;;;;;;1.00;0.90;;;;;;;-149.78;50.69;50009.91;5103897;28;20052;-70
2022/05/29 09:16:00;;;;;;;1.30;0.60;;;;;;;-149.78;48.31;49998.19;5114751;28;20056;-71
2022/05/29 09:18:38;;;;;;;1.83;0.80;;;;;;;-149.78;47.97;49992.31;5132168;28;20023;-70
2022/05/29 09:21:12;;;;;;;0.95;0.63;;;;;;;-149.78;48.72;49982.53;5114550;28;20066;-71
2022/05/29 09:23:46;;;;;;;0.80;0.73;;;;;;;-149.78;48.01;49982.53;5120071;28;20036;-71
2022/05/29 09:26:18;;;;;;;0.60;0.60;;;;;;;-149.78;47.74;50045.09;5107880;28;20039;-69
2022/05/29 09:28:44;;;;;;;;;;;;;;;-149.78;55.61;50056.84;5104290;28;20034;-69
2022/05/29 09:31:16;;;;;;;1.48;1.00;;;;;;;-149.78;58.38;50088.13;5114363;28;19911;-70
2022/05/29 09:33:42;;;;;;;3.35;0.77;;;;;;;-149.78;59.19;50072.50;5121208;28;20379;-70
2022/05/29 09:36:44;;;;;;;1.85;0.73;;;;;;;-149.78;63.82;50101.81;5124990;28;20027;-70
2022/05/29 09:39:28;;;;;;;0.82;0.75;;;;;;;-149.78;66.85;50135.06;5131612;28;20080;-69
2022/05/29 09:42:07;;;;;;;1.85;0.93;;;;;;;-149.78;66.70;50138.97;5106866;28;20028;-69
2022/05/29 09:44:32;;;;;;;2.40;1.00;;;;;;;-149.78;72.31;50115.50;5116795;28;20035;-69
2022/05/29 09:50:00;;;;;;;1.83;0.82;;;;;;;-149.78;77.25;50158.53;5117613;28;20054;-73
2022/05/29 09:52:43;;;;;;;2.00;0.95;;;;;;;-149.78;77.94;50166.34;5086488;28;20059;-72
2022/05/29 09:55:30;;;;;;;1.73;1.00;;;;;;;-149.78;78.34;50129.19;5126754;28;20492;-70
2022/05/29 09:58:03;;;;;;;2.65;0.90;;;;;;;-149.78;79.72;50146.81;5110898;28;20031;-70
2022/05/29 10:00:51;;;;;;;2.90;1.00;;;;;;;-149.78;78.70;50150.72;5104734;28;20027;-70
2022/05/29 10:03:39;;;;;;;2.85;1.20;;;;;;;-149.78;81.69;50138.97;5128341;28;20031;-71
2022/05/29 10:06:29;;;;;;;3.17;1.27;;;;;;;-149.78;81.49;50123.34;5094612;28;20487;-73
2022/05/29 10:09:07;;;;;;;1.85;1.05;;;;;;;-149.78;84.97;50178.09;5126533;28;20058;-70
2022/05/29 10:11:33;;;;;;;1.80;1.45;;;;;;;-149.78;81.81;50150.72;5101738;28;20081;-70
2022/05/29 10:14:15;;;;;;;1.95;1.27;;;;;;;-149.78;80.28;50156.56;5129318;27;20027;-69
2022/05/29 10:16:42;;;;;;;2.50;1.20;;;;;;;-149.78;79.71;50135.06;5123068;27;20035;-70
2022/05/29 10:19:16;;;;;;;2.72;1.20;;;;;;;-149.78;77.38;50127.25;5127700;27;20032;-70
2022/05/29 10:21:47;;;;;;;4.00;1.13;;;;;;;-149.78;73.14;50142.88;5116115;28;20091;-70
2022/05/29 10:24:20;;;;;;;3.90;1.65;;;;;;;-149.78;70.90;50162.44;5126818;27;20028;-70
2022/05/29 10:26:51;;;;;;;2.45;1.05;;;;;;;-149.78;73.74;50148.75;5114369;28;20375;-70
2022/05/29 10:29:25;;;;;;;0.88;0.88;;;;;;;-149.78;69.21;50154.63;5099074;27;20415;-70
2022/05/29 10:31:51;;;;;;;3.15;1.50;;;;;;;-149.78;70.41;50131.16;5124289;27;20019;-70
2022/05/29 10:34:27;;;;;;;2.10;1.10;;;;;;;-149.78;70.31;50142.88;5130657;27;20054;-70
2022/05/29 10:36:54;;;;;;;1.60;1.05;;;;;;;-149.78;75.00;50142.88;5123298;27;20036;-70
2022/05/29 10:39:23;;;;;;;2.92;1.20;;;;;;;-149.78;81.42;50150.72;5128850;27;20038;-70
2022/05/29 10:41:51;;;;;;;3.67;1.30;;;;;;;-149.78;79.58;50146.81;5127524;27;20035;-70
2022/05/29 10:44:43;;;;;;;3.28;1.10;;;;;;;-149.78;83.72;50187.88;5126551;27;20030;-70
2022/05/29 10:47:29;;;;;;;1.98;1.25;;;;;;;-149.78;84.98;50123.34;5103814;27;20045;-70
2022/05/29 10:50:08;;;;;;;4.57;1.60;;;;;;;-149.78;77.74;50115.50;5132549;27;20027;-70
2022/05/29 10:52:44;;;;;;;5.22;1.13;;;;;;;-149.78;68.58;50144.84;5115743;27;20023;-69
2022/05/29 10:55:09;;;;;;;1.90;1.05;;;;;;;-149.78;66.06;50142.88;5127868;27;20047;-70
2022/05/29 10:57:59;;;;;;;3.22;1.00;;;;;;;-149.78;60.37;50107.69;5106019;27;20470;-70
2022/05/29 11:00:48;;;;;;;2.20;1.10;;;;;;;-149.78;56.88;50095.94;5112597;27;20035;-70
2022/05/29 11:03:22;;;;;;;1.15;1.00;;;;;;;-149.78;56.05;50092.03;5110257;27;20485;-70
2022/05/29 11:06:01;;;;;;;1.30;1.00;;;;;;;-149.78;57.97;50107.69;5126140;27;20046;-70
2022/05/29 11:08:29;;;;;;;2.47;1.10;;;;;;;-149.78;58.86;50127.25;5126383;27;20055;-70
2022/05/29 11:11:00;;;;;;;3.53;0.90;;;;;;;-149.78;62.59;50140.94;5121295;27;20458;-70
2022/05/29 11:13:52;;;;;;;2.13;0.90;;;;;;;-149.78;61.87;50137.03;5119878;27;20031;-70
2022/05/29 11:16:31;;;;;;;1.00;0.90;;;;;;;-149.78;62.20;50123.34;5113014;27;20040;-70
2022/05/29 11:18:57;;;;;;;0.80;0.80;;;;;;;-149.78;60.49;50097.91;5125833;27;20585;-70
2022/05/29 11:21:36;;;;;;;1.65;1.00;;;;;;;-149.78;60.19;50086.19;5079983;28;20027;-70
2022/05/29 11:24:05;;;;;;;5.63;0.85;;;;;;;-149.78;59.43;50144.84;5123605;27;20059;-71
2022/05/29 11:26:50;;;;;;;1.25;0.95;;;;;;;-149.78;58.31;50094.00;5130783;27;20034;-70
2022/05/29 11:29:19;;;;;;;6.22;1.05;;;;;;;-149.78;58.17;50088.13;5116801;27;20408;-70
2022/05/29 11:32:05;;;;;;;3.00;1.20;;;;;;;-149.78;57.86;50092.03;5132828;27;20027;-71
2022/05/29 11:34:37;;;;;;;2.25;1.10;;;;;;;-149.78;59.65;50078.34;5114025;27;20030;-71
2022/05/29 11:37:14;;;;;;;4.00;1.17;;;;;;;-149.78;58.82;50094.00;5123758;27;20027;-70
2022/05/29 11:39:48;;;;;;;2.35;1.00;;;;;;;-149.78;56.49;50092.03;5118422;27;20031;-70
2022/05/29 11:42:22;;;;;;;3.30;1.25;;;;;;;-149.78;59.32;50094.00;5133124;27;20122;-70
2022/05/29 11:44:57;;;;;;;2.40;1.10;;;;;;;-149.78;59.50;50082.25;5115431;27;20023;-71
2022/05/29 11:53:24;;;;;;;1.65;0.95;;;;;;;-149.78;58.15;50119.41;5128631;27;20155;-71
2022/05/29 11:55:50;;;;;;;2.22;0.85;;;;;;;-149.78;59.47;50107.69;5112699;28;20031;-71
2022/05/29 11:58:27;;;;;;;3.60;1.15;;;;;;;-149.78;64.12;50123.34;5095659;28;20035;-71
2022/05/29 12:00:58;;;;;;;1.38;1.08;;;;;;;-149.78;61.09;50119.41;5113656;28;20036;-72
2022/05/29 12:03:27;;;;;;;3.88;1.33;;;;;;;-149.78;60.94;50127.25;5112048;28;20143;-71
2022/05/29 12:06:21;;;;;;;5.93;1.27;;;;;;;-149.78;63.86;50097.91;5097582;27;20043;-71